sensor_id;sensor_type;location;lat;lon;timestamp;pressure;altitude;pressure_sealevel;temperature;humidity
6528;BME280;64597;42.664;23.256;2023-07-20T00:00:02;94258.16;;;23.80;49.74
6528;BME280;64597;42.664;23.256;2023-07-20T00:02:29;94264.00;;;23.82;49.63
6528;BME280;64597;42.664;23.256;2023-07-20T00:04:56;94258.00;;;23.85;49.47
6528;BME280;64597;42.664;23.256;2023-07-20T00:07:22;94237.41;;;23.80;49.76
6528;BME280;64597;42.664;23.256;2023-07-20T00:09:51;94232.50;;;23.82;49.07
6528;BME280;64597;42.664;23.256;2023-07-20T00:12:17;94230.28;;;23.84;48.22
6528;BME280;64597;42.664;23.256;2023-07-20T00:14:43;94235.81;;;23.88;48.07
6528;BME280;64597;42.664;23.256;2023-07-20T00:17:10;94242.13;;;23.92;48.41
6528;BME280;64597;42.664;23.256;2023-07-20T00:19:36;94247.97;;;23.94;48.68
6528;BME280;64597;42.664;23.256;2023-07-20T00:22:03;94263.69;;;23.92;49.17
6528;BME280;64597;42.664;23.256;2023-07-20T00:24:30;94268.72;;;23.93;49.17
6528;BME280;64597;42.664;23.256;2023-07-20T00:26:57;94264.31;;;23.89;49.70
6528;BME280;64597;42.664;23.256;2023-07-20T00:29:23;94268.91;;;23.88;50.53
6528;BME280;64597;42.664;23.256;2023-07-20T00:31:49;94270.47;;;23.98;49.17
6528;BME280;64597;42.664;23.256;2023-07-20T00:34:16;94270.47;;;23.98;48.91
6528;BME280;64597;42.664;23.256;2023-07-20T00:36:42;94275.50;;;23.99;48.92
6528;BME280;64597;42.664;23.256;2023-07-20T00:39:09;94274.25;;;23.97;48.52
6528;BME280;64597;42.664;23.256;2023-07-20T00:41:37;94257.16;;;23.93;48.76
6528;BME280;64597;42.664;23.256;2023-07-20T00:44:04;94268.06;;;24.05;49.00
6528;BME280;64597;42.664;23.256;2023-07-20T00:46:31;94252.53;;;24.02;49.24
6528;BME280;64597;42.664;23.256;2023-07-20T00:49:00;94258.34;;;24.12;50.59
6528;BME280;64597;42.664;23.256;2023-07-20T00:51:28;94252.94;;;24.12;50.56
6528;BME280;64597;42.664;23.256;2023-07-20T00:53:55;94255.97;;;24.11;50.36
6528;BME280;64597;42.664;23.256;2023-07-20T00:56:21;94243.06;;;23.96;50.80
6528;BME280;64597;42.664;23.256;2023-07-20T00:58:47;94246.00;;;24.03;52.02
6528;BME280;64597;42.664;23.256;2023-07-20T01:01:14;94255.84;;;23.99;51.95
6528;BME280;64597;42.664;23.256;2023-07-20T01:03:41;94246.72;;;23.91;51.96
6528;BME280;64597;42.664;23.256;2023-07-20T01:09:16;94244.44;;;23.72;52.03
6528;BME280;64597;42.664;23.256;2023-07-20T01:12:28;94252.03;;;23.70;51.88
6528;BME280;64597;42.664;23.256;2023-07-20T01:14:57;94254.53;;;23.75;52.32
6528;BME280;64597;42.664;23.256;2023-07-20T01:17:22;94209.84;;;23.45;52.12
6528;BME280;64597;42.664;23.256;2023-07-20T01:19:49;94250.28;;;23.74;52.35
6528;BME280;64597;42.664;23.256;2023-07-20T01:32:43;94266.03;;;23.55;53.84
6528;BME280;64597;42.664;23.256;2023-07-20T01:35:12;94264.00;;;23.52;53.83
6528;BME280;64597;42.664;23.256;2023-07-20T01:37:42;94269.41;;;23.44;53.47
6528;BME280;64597;42.664;23.256;2023-07-20T01:40:11;94269.41;;;23.44;53.45
6528;BME280;64597;42.664;23.256;2023-07-20T01:42:43;94253.44;;;23.30;54.03
6528;BME280;64597;42.664;23.256;2023-07-20T01:45:10;94257.22;;;23.29;54.40
6528;BME280;64597;42.664;23.256;2023-07-20T01:47:35;94266.91;;;23.22;54.19
6528;BME280;64597;42.664;23.256;2023-07-20T01:50:02;94262.63;;;23.12;54.09
6528;BME280;64597;42.664;23.256;2023-07-20T01:52:28;94241.75;;;23.09;54.20
6528;BME280;64597;42.664;23.256;2023-07-20T01:54:55;94256.63;;;23.15;54.29
6528;BME280;64597;42.664;23.256;2023-07-20T01:57:24;94272.63;;;23.12;54.78
6528;BME280;64597;42.664;23.256;2023-07-20T01:59:50;94252.66;;;23.13;54.77
6528;BME280;64597;42.664;23.256;2023-07-20T02:02:16;94253.00;;;23.11;55.52
6528;BME280;64597;42.664;23.256;2023-07-20T02:04:43;94232.75;;;22.97;55.43
6528;BME280;64597;42.664;23.256;2023-07-20T02:07:09;94253.94;;;22.98;55.52
6528;BME280;64597;42.664;23.256;2023-07-20T02:09:35;94258.09;;;22.96;56.35
6528;BME280;64597;42.664;23.256;2023-07-20T02:12:05;94232.94;;;22.83;56.44
6528;BME280;64597;42.664;23.256;2023-07-20T02:14:32;94250.63;;;22.92;56.69
6528;BME280;64597;42.664;23.256;2023-07-20T02:17:02;94250.16;;;22.90;57.42
6528;BME280;64597;42.664;23.256;2023-07-20T02:19:30;94248.59;;;22.81;57.08
6528;BME280;64597;42.664;23.256;2023-07-20T02:21:56;94226.31;;;22.63;57.15
6528;BME280;64597;42.664;23.256;2023-07-20T02:24:23;94255.41;;;22.78;57.35
6528;BME280;64597;42.664;23.256;2023-07-20T02:26:49;94249.69;;;22.71;57.04
6528;BME280;64597;42.664;23.256;2023-07-20T02:29:16;94246.53;;;22.78;57.21
6528;BME280;64597;42.664;23.256;2023-07-20T02:31:42;94249.88;;;22.75;57.18
6528;BME280;64597;42.664;23.256;2023-07-20T02:34:08;94253.19;;;22.72;57.29
6528;BME280;64597;42.664;23.256;2023-07-20T02:36:35;94256.19;;;22.70;57.63
6528;BME280;64597;42.664;23.256;2023-07-20T02:39:02;94263.63;;;22.65;57.86
6528;BME280;64597;42.664;23.256;2023-07-20T02:41:31;94222.97;;;22.49;57.92
6528;BME280;64597;42.664;23.256;2023-07-20T02:43:58;94237.66;;;22.52;58.22
6528;BME280;64597;42.664;23.256;2023-07-20T02:46:24;94229.94;;;22.50;57.83
6528;BME280;64597;42.664;23.256;2023-07-20T02:48:51;94231.97;;;22.45;57.55
6528;BME280;64597;42.664;23.256;2023-07-20T02:51:19;94230.41;;;22.44;57.46
6528;BME280;64597;42.664;23.256;2023-07-20T02:53:48;94211.59;;;22.35;57.77
6528;BME280;64597;42.664;23.256;2023-07-20T02:56:13;94232.28;;;22.35;57.71
6528;BME280;64597;42.664;23.256;2023-07-20T02:58:42;94228.16;;;22.29;57.41
6528;BME280;64597;42.664;23.256;2023-07-20T03:01:09;94226.59;;;22.28;57.08
6528;BME280;64597;42.664;23.256;2023-07-20T03:03:38;94219.31;;;22.20;56.70
6528;BME280;64597;42.664;23.256;2023-07-20T03:06:05;94231.16;;;22.19;56.18
6528;BME280;64597;42.664;23.256;2023-07-20T03:08:31;94237.31;;;22.10;56.42
6528;BME280;64597;42.664;23.256;2023-07-20T03:10:57;94228.94;;;22.03;56.64
6528;BME280;64597;42.664;23.256;2023-07-20T03:13:23;94237.47;;;22.05;56.68
6528;BME280;64597;42.664;23.256;2023-07-20T03:15:50;94222.44;;;21.96;56.53
6528;BME280;64597;42.664;23.256;2023-07-20T03:18:18;94239.97;;;22.02;56.95
6528;BME280;64597;42.664;23.256;2023-07-20T03:20:44;94247.75;;;22.03;56.50
6528;BME280;64597;42.664;23.256;2023-07-20T03:23:10;94247.88;;;21.98;56.60
6528;BME280;64597;42.664;23.256;2023-07-20T03:25:36;94252.28;;;21.94;57.14
6528;BME280;64597;42.664;23.256;2023-07-20T03:28:03;94240.38;;;21.78;57.37
6528;BME280;64597;42.664;23.256;2023-07-20T03:30:29;94261.13;;;21.95;57.37
6528;BME280;64597;42.664;23.256;2023-07-20T03:32:56;94258.78;;;21.93;57.32
6528;BME280;64597;42.664;23.256;2023-07-20T03:35:26;94248.03;;;21.93;57.41
6528;BME280;64597;42.664;23.256;2023-07-20T03:37:51;94253.41;;;21.93;57.34
6528;BME280;64597;42.664;23.256;2023-07-20T03:40:18;94258.28;;;21.91;57.25
6528;BME280;64597;42.664;23.256;2023-07-20T03:42:45;94244.88;;;21.91;57.63
6528;BME280;64597;42.664;23.256;2023-07-20T03:45:10;94250.69;;;21.85;57.70
6528;BME280;64597;42.664;23.256;2023-07-20T03:47:39;94245.94;;;21.82;57.23
6528;BME280;64597;42.664;23.256;2023-07-20T03:50:06;94254.28;;;21.80;56.76
6528;BME280;64597;42.664;23.256;2023-07-20T03:52:32;94257.94;;;21.84;56.50
6528;BME280;64597;42.664;23.256;2023-07-20T03:54:58;94257.63;;;21.86;56.29
6528;BME280;64597;42.664;23.256;2023-07-20T03:57:26;94248.75;;;21.77;56.36
6528;BME280;64597;42.664;23.256;2023-07-20T03:59:54;94263.31;;;21.84;56.56
6528;BME280;64597;42.664;23.256;2023-07-20T04:02:22;94261.22;;;21.81;56.79
6528;BME280;64597;42.664;23.256;2023-07-20T04:04:49;94257.56;;;21.77;57.02
6528;BME280;64597;42.664;23.256;2023-07-20T04:07:15;94251.09;;;21.78;56.97
6528;BME280;64597;42.664;23.256;2023-07-20T04:09:41;94243.72;;;21.84;57.22
6528;BME280;64597;42.664;23.256;2023-07-20T04:12:08;94235.47;;;21.80;57.31
6528;BME280;64597;42.664;23.256;2023-07-20T04:14:33;94240.13;;;21.88;57.81
6528;BME280;64597;42.664;23.256;2023-07-20T04:17:00;94229.25;;;21.93;57.75
6528;BME280;64597;42.664;23.256;2023-07-20T04:19:26;94209.00;;;21.87;57.64
6528;BME280;64597;42.664;23.256;2023-07-20T04:21:53;94227.03;;;22.04;57.83
6528;BME280;64597;42.664;23.256;2023-07-20T04:24:19;94223.56;;;22.03;57.25
6528;BME280;64597;42.664;23.256;2023-07-20T04:26:47;94216.47;;;22.07;56.95
6528;BME280;64597;42.664;23.256;2023-07-20T04:29:13;94222.44;;;22.04;57.06
6528;BME280;64597;42.664;23.256;2023-07-20T04:31:41;94226.44;;;22.16;56.90
6528;BME280;64597;42.664;23.256;2023-07-20T04:34:07;94228.16;;;22.20;56.32
6528;BME280;64597;42.664;23.256;2023-07-20T04:36:33;94241.44;;;22.25;56.41
6528;BME280;64597;42.664;23.256;2023-07-20T04:39:01;94214.09;;;22.23;56.53
6528;BME280;64597;42.664;23.256;2023-07-20T04:41:27;94228.66;;;22.39;56.68
6528;BME280;64597;42.664;23.256;2023-07-20T04:43:53;94218.69;;;22.40;56.71
6528;BME280;64597;42.664;23.256;2023-07-20T04:46:21;94221.53;;;22.52;57.23
6528;BME280;64597;42.664;23.256;2023-07-20T04:48:52;94213.16;;;22.53;57.13
6528;BME280;64597;42.664;23.256;2023-07-20T04:51:19;94225.69;;;22.66;57.59
6528;BME280;64597;42.664;23.256;2023-07-20T04:53:49;94220.59;;;22.73;57.51
6528;BME280;64597;42.664;23.256;2023-07-20T04:56:18;94225.97;;;22.82;56.95
6528;BME280;64597;42.664;23.256;2023-07-20T04:58:44;94222.19;;;22.83;56.25
6528;BME280;64597;42.664;23.256;2023-07-20T05:01:11;94217.56;;;22.92;56.19
6528;BME280;64597;42.664;23.256;2023-07-20T05:03:37;94225.34;;;22.93;55.64
6528;BME280;64597;42.664;23.256;2023-07-20T05:06:04;94210.75;;;23.03;55.85
6528;BME280;64597;42.664;23.256;2023-07-20T05:08:31;94217.81;;;23.16;55.65
6528;BME280;64597;42.664;23.256;2023-07-20T05:10:57;94215.44;;;23.23;55.71
6528;BME280;64597;42.664;23.256;2023-07-20T05:13:23;94220.34;;;23.30;55.20
6528;BME280;64597;42.664;23.256;2023-07-20T05:15:52;94211.34;;;23.34;55.29
6528;BME280;64597;42.664;23.256;2023-07-20T05:18:20;94220.16;;;23.43;55.21
6528;BME280;64597;42.664;23.256;2023-07-20T05:20:50;94231.50;;;23.57;55.22
6528;BME280;64597;42.664;23.256;2023-07-20T05:23:18;94219.91;;;23.65;54.83
6528;BME280;64597;42.664;23.256;2023-07-20T05:25:45;94229.19;;;23.77;53.95
6528;BME280;64597;42.664;23.256;2023-07-20T05:28:11;94226.19;;;23.78;53.81
6528;BME280;64597;42.664;23.256;2023-07-20T05:30:37;94234.34;;;23.90;52.72
6528;BME280;64597;42.664;23.256;2023-07-20T05:33:04;94238.44;;;23.96;52.61
6528;BME280;64597;42.664;23.256;2023-07-20T05:35:31;94238.09;;;24.06;53.28
6528;BME280;64597;42.664;23.256;2023-07-20T05:37:58;94237.88;;;24.20;52.47
6528;BME280;64597;42.664;23.256;2023-07-20T05:40:26;94250.16;;;24.29;52.76
6528;BME280;64597;42.664;23.256;2023-07-20T05:42:52;94242.47;;;24.40;52.77
6528;BME280;64597;42.664;23.256;2023-07-20T05:45:19;94241.97;;;24.46;51.49
6528;BME280;64597;42.664;23.256;2023-07-20T05:47:46;94252.69;;;24.55;51.47
6528;BME280;64597;42.664;23.256;2023-07-20T05:50:13;94256.38;;;24.71;51.49
6528;BME280;64597;42.664;23.256;2023-07-20T05:52:40;94244.66;;;24.67;51.07
6528;BME280;64597;42.664;23.256;2023-07-20T05:55:07;94239.00;;;24.81;51.17
6528;BME280;64597;42.664;23.256;2023-07-20T05:57:34;94231.31;;;24.91;50.39
6528;BME280;64597;42.664;23.256;2023-07-20T06:00:02;94237.91;;;25.14;49.84
6528;BME280;64597;42.664;23.256;2023-07-20T06:02:29;94241.88;;;25.29;48.89
6528;BME280;64597;42.664;23.256;2023-07-20T06:04:56;94242.53;;;25.47;48.33
6528;BME280;64597;42.664;23.256;2023-07-20T06:07:23;94229.25;;;25.66;48.17
6528;BME280;64597;42.664;23.256;2023-07-20T06:09:50;94246.59;;;26.01;47.61
6528;BME280;64597;42.664;23.256;2023-07-20T06:12:20;94240.44;;;26.25;45.93
6528;BME280;64597;42.664;23.256;2023-07-20T06:14:46;94235.09;;;26.52;45.17
6528;BME280;64597;42.664;23.256;2023-07-20T06:17:12;94238.41;;;26.85;45.04
6528;BME280;64597;42.664;23.256;2023-07-20T06:19:40;94232.38;;;27.20;44.89
6528;BME280;64597;42.664;23.256;2023-07-20T06:22:07;94214.81;;;27.57;44.28
6528;BME280;64597;42.664;23.256;2023-07-20T06:24:34;94193.41;;;27.83;43.04
6528;BME280;64597;42.664;23.256;2023-07-20T06:27:00;94211.28;;;28.34;42.11
6528;BME280;64597;42.664;23.256;2023-07-20T06:29:26;94215.16;;;28.68;41.56
6528;BME280;64597;42.664;23.256;2023-07-20T06:31:53;94208.00;;;28.98;40.95
6528;BME280;64597;42.664;23.256;2023-07-20T06:34:19;94214.06;;;29.11;41.13
6528;BME280;64597;42.664;23.256;2023-07-20T06:36:46;94213.78;;;29.35;38.77
6528;BME280;64597;42.664;23.256;2023-07-20T06:39:15;94204.38;;;29.52;38.35
6528;BME280;64597;42.664;23.256;2023-07-20T06:41:41;94207.56;;;29.57;39.00
6528;BME280;64597;42.664;23.256;2023-07-20T06:44:07;94203.53;;;29.93;38.72
6528;BME280;64597;42.664;23.256;2023-07-20T06:46:33;94210.88;;;30.38;38.14
6528;BME280;64597;42.664;23.256;2023-07-20T06:48:59;94204.81;;;30.81;37.36
6528;BME280;64597;42.664;23.256;2023-07-20T06:51:25;94202.13;;;31.14;37.03
6528;BME280;64597;42.664;23.256;2023-07-20T06:53:52;94210.63;;;31.42;35.81
6528;BME280;64597;42.664;23.256;2023-07-20T06:56:17;94226.81;;;31.65;36.10
6528;BME280;64597;42.664;23.256;2023-07-20T06:58:43;94221.72;;;32.00;35.37
6528;BME280;64597;42.664;23.256;2023-07-20T07:01:09;94234.03;;;31.87;34.89
6528;BME280;64597;42.664;23.256;2023-07-20T07:03:35;94229.88;;;31.97;34.27
6528;BME280;64597;42.664;23.256;2023-07-20T07:06:03;94240.97;;;31.78;35.00
6528;BME280;64597;42.664;23.256;2023-07-20T07:08:30;94243.16;;;31.61;34.69
6528;BME280;64597;42.664;23.256;2023-07-20T07:10:56;94237.84;;;31.06;35.77
6528;BME280;64597;42.664;23.256;2023-07-20T07:13:22;94256.56;;;31.07;36.78
6528;BME280;64597;42.664;23.256;2023-07-20T07:15:48;94263.88;;;31.36;36.94
6528;BME280;64597;42.664;23.256;2023-07-20T07:18:13;94278.59;;;31.95;35.96
6528;BME280;64597;42.664;23.256;2023-07-20T07:20:43;94279.44;;;32.50;34.73
6528;BME280;64597;42.664;23.256;2023-07-20T07:23:15;94277.78;;;32.96;34.45
6528;BME280;64597;42.664;23.256;2023-07-20T07:25:42;94279.47;;;33.14;34.11
6528;BME280;64597;42.664;23.256;2023-07-20T07:28:07;94269.28;;;33.08;34.80
6528;BME280;64597;42.664;23.256;2023-07-20T07:30:34;94271.59;;;33.02;34.93
6528;BME280;64597;42.664;23.256;2023-07-20T07:32:59;94273.59;;;33.09;34.45
6528;BME280;64597;42.664;23.256;2023-07-20T07:35:25;94268.53;;;33.07;35.21
6528;BME280;64597;42.664;23.256;2023-07-20T07:37:52;94254.47;;;33.12;34.69
6528;BME280;64597;42.664;23.256;2023-07-20T07:40:20;94256.84;;;33.24;34.38
6528;BME280;64597;42.664;23.256;2023-07-20T07:42:46;94267.84;;;33.28;34.58
6528;BME280;64597;42.664;23.256;2023-07-20T07:45:13;94249.13;;;33.44;34.23
6528;BME280;64597;42.664;23.256;2023-07-20T07:47:42;94243.38;;;33.74;34.82
6528;BME280;64597;42.664;23.256;2023-07-20T07:50:09;94228.53;;;33.89;34.13
6528;BME280;64597;42.664;23.256;2023-07-20T07:52:35;94221.16;;;34.18;33.18
6528;BME280;64597;42.664;23.256;2023-07-20T07:55:03;94231.31;;;34.38;32.77
6528;BME280;64597;42.664;23.256;2023-07-20T07:57:29;94227.00;;;34.37;32.76
6528;BME280;64597;42.664;23.256;2023-07-20T07:59:55;94213.31;;;34.44;32.68
6528;BME280;64597;42.664;23.256;2023-07-20T08:02:21;94226.63;;;34.56;32.53
6528;BME280;64597;42.664;23.256;2023-07-20T08:04:50;94243.00;;;34.74;32.17
6528;BME280;64597;42.664;23.256;2023-07-20T08:07:18;94261.75;;;34.97;32.06
6528;BME280;64597;42.664;23.256;2023-07-20T08:09:45;94263.75;;;35.00;31.44
6528;BME280;64597;42.664;23.256;2023-07-20T08:12:10;94279.66;;;35.36;31.43
6528;BME280;64597;42.664;23.256;2023-07-20T08:14:36;94283.50;;;35.60;31.18
6528;BME280;64597;42.664;23.256;2023-07-20T08:17:01;94278.72;;;35.75;31.14
6528;BME280;64597;42.664;23.256;2023-07-20T08:19:27;94292.69;;;36.05;30.28
6528;BME280;64597;42.664;23.256;2023-07-20T08:21:52;94299.56;;;36.30;29.31
6528;BME280;64597;42.664;23.256;2023-07-20T08:24:18;94301.03;;;36.49;29.05
6528;BME280;64597;42.664;23.256;2023-07-20T08:26:43;94291.25;;;36.45;27.45
6528;BME280;64597;42.664;23.256;2023-07-20T08:29:09;94288.13;;;36.43;27.47
6528;BME280;64597;42.664;23.256;2023-07-20T08:31:34;94297.09;;;36.50;26.90
6528;BME280;64597;42.664;23.256;2023-07-20T08:34:00;94306.41;;;36.63;26.92
6528;BME280;64597;42.664;23.256;2023-07-20T08:36:25;94301.28;;;36.62;26.67
6528;BME280;64597;42.664;23.256;2023-07-20T08:38:52;94294.53;;;36.73;26.49
6528;BME280;64597;42.664;23.256;2023-07-20T08:41:18;94291.53;;;36.57;26.24
6528;BME280;64597;42.664;23.256;2023-07-20T08:43:46;94292.25;;;36.65;26.56
6528;BME280;64597;42.664;23.256;2023-07-20T08:46:12;94294.78;;;36.42;26.69
6528;BME280;64597;42.664;23.256;2023-07-20T08:48:41;94289.03;;;36.73;25.82
6528;BME280;64597;42.664;23.256;2023-07-20T08:51:07;94283.53;;;36.73;25.77
6528;BME280;64597;42.664;23.256;2023-07-20T08:53:33;94289.19;;;36.56;26.16
6528;BME280;64597;42.664;23.256;2023-07-20T08:55:59;94289.75;;;36.81;26.19
6528;BME280;64597;42.664;23.256;2023-07-20T08:58:26;94277.88;;;36.91;25.87
6528;BME280;64597;42.664;23.256;2023-07-20T09:00:54;94273.97;;;36.88;26.30
6528;BME280;64597;42.664;23.256;2023-07-20T09:03:21;94279.19;;;37.16;25.64
6528;BME280;64597;42.664;23.256;2023-07-20T09:05:49;94266.88;;;37.28;24.82
6528;BME280;64597;42.664;23.256;2023-07-20T09:08:15;94267.88;;;37.45;25.05
6528;BME280;64597;42.664;23.256;2023-07-20T09:10:42;94277.00;;;37.68;24.30
6528;BME280;64597;42.664;23.256;2023-07-20T09:13:16;94258.94;;;37.67;23.58
6528;BME280;64597;42.664;23.256;2023-07-20T09:15:53;94268.38;;;37.66;24.18
6528;BME280;64597;42.664;23.256;2023-07-20T09:18:27;94265.44;;;37.84;23.34
6528;BME280;64597;42.664;23.256;2023-07-20T09:21:06;94258.28;;;37.86;24.13
6528;BME280;64597;42.664;23.256;2023-07-20T09:23:35;94255.13;;;37.88;23.02
6528;BME280;64597;42.664;23.256;2023-07-20T09:26:11;94258.34;;;38.10;23.48
6528;BME280;64597;42.664;23.256;2023-07-20T09:28:44;94253.56;;;38.14;23.27
6528;BME280;64597;42.664;23.256;2023-07-20T09:31:21;94258.41;;;38.33;22.98
6528;BME280;64597;42.664;23.256;2023-07-20T09:33:52;94251.34;;;38.55;23.13
6528;BME280;64597;42.664;23.256;2023-07-20T09:36:18;94262.97;;;38.66;22.63
6528;BME280;64597;42.664;23.256;2023-07-20T09:38:46;94263.13;;;38.82;22.33
6528;BME280;64597;42.664;23.256;2023-07-20T09:41:16;94251.88;;;38.93;22.20
6528;BME280;64597;42.664;23.256;2023-07-20T09:43:47;94246.72;;;38.95;21.83
6528;BME280;64597;42.664;23.256;2023-07-20T09:46:14;94247.50;;;38.95;21.34
6528;BME280;64597;42.664;23.256;2023-07-20T09:48:52;94256.34;;;39.06;21.50
6528;BME280;64597;42.664;23.256;2023-07-20T09:51:24;94234.59;;;39.12;21.69
6528;BME280;64597;42.664;23.256;2023-07-20T09:53:53;94227.16;;;39.28;21.55
6528;BME280;64597;42.664;23.256;2023-07-20T09:56:23;94211.75;;;38.68;22.36
6528;BME280;64597;42.664;23.256;2023-07-20T09:58:51;94205.69;;;38.31;22.02
6528;BME280;64597;42.664;23.256;2023-07-20T10:01:20;94215.16;;;38.03;21.73
6528;BME280;64597;42.664;23.256;2023-07-20T10:03:51;94212.19;;;37.90;22.15
6528;BME280;64597;42.664;23.256;2023-07-20T10:06:24;94219.25;;;37.65;21.83
6528;BME280;64597;42.664;23.256;2023-07-20T10:08:53;94228.94;;;37.46;22.11
6528;BME280;64597;42.664;23.256;2023-07-20T10:11:26;94221.66;;;37.33;22.59
6528;BME280;64597;42.664;23.256;2023-07-20T10:13:58;94226.28;;;37.05;22.92
6528;BME280;64597;42.664;23.256;2023-07-20T10:16:28;94221.72;;;36.92;22.77
6528;BME280;64597;42.664;23.256;2023-07-20T10:19:03;94226.88;;;36.83;22.89
6528;BME280;64597;42.664;23.256;2023-07-20T10:21:30;94234.91;;;36.67;23.29
6528;BME280;64597;42.664;23.256;2023-07-20T10:23:57;94237.41;;;36.51;24.43
6528;BME280;64597;42.664;23.256;2023-07-20T10:26:26;94229.75;;;36.28;24.67
6528;BME280;64597;42.664;23.256;2023-07-20T10:28:53;94226.16;;;36.34;24.38
6528;BME280;64597;42.664;23.256;2023-07-20T10:31:20;94169.66;;;35.86;23.68
6528;BME280;64597;42.664;23.256;2023-07-20T10:33:51;94207.97;;;36.03;24.05
6528;BME280;64597;42.664;23.256;2023-07-20T10:36:24;94217.81;;;35.97;24.46
6528;BME280;64597;42.664;23.256;2023-07-20T10:38:53;94218.69;;;35.84;24.74
6528;BME280;64597;42.664;23.256;2023-07-20T10:44:01;94145.66;;;35.35;25.24
6528;BME280;64597;42.664;23.256;2023-07-20T10:46:42;94131.69;;;35.15;24.60
6528;BME280;64597;42.664;23.256;2023-07-20T10:49:16;94146.69;;;34.90;26.25
6528;BME280;64597;42.664;23.256;2023-07-20T10:51:45;94165.81;;;34.97;26.42
6528;BME280;64597;42.664;23.256;2023-07-20T10:56:43;94148.94;;;35.09;27.24
6528;BME280;64597;42.664;23.256;2023-07-20T11:01:55;94135.66;;;35.04;27.27
6528;BME280;64597;42.664;23.256;2023-07-20T11:04:45;94141.16;;;35.04;26.99
6528;BME280;64597;42.664;23.256;2023-07-20T11:07:15;94128.63;;;34.92;26.78
6528;BME280;64597;42.664;23.256;2023-07-20T11:09:44;94134.53;;;34.98;27.59
6528;BME280;64597;42.664;23.256;2023-07-20T11:12:16;94130.56;;;35.06;27.63
6528;BME280;64597;42.664;23.256;2023-07-20T11:14:56;94130.97;;;35.01;27.72
6528;BME280;64597;42.664;23.256;2023-07-20T11:17:32;94137.59;;;35.07;27.58
6528;BME280;64597;42.664;23.256;2023-07-20T11:20:00;94135.66;;;34.97;27.22
6528;BME280;64597;42.664;23.256;2023-07-20T11:22:27;94129.00;;;34.94;27.60
6528;BME280;64597;42.664;23.256;2023-07-20T11:24:57;94127.00;;;35.09;27.38
6528;BME280;64597;42.664;23.256;2023-07-20T11:27:24;94128.97;;;35.12;27.22
6528;BME280;64597;42.664;23.256;2023-07-20T11:29:53;94120.88;;;34.76;26.55
6528;BME280;64597;42.664;23.256;2023-07-20T11:32:23;94121.00;;;34.48;27.71
6528;BME280;64597;42.664;23.256;2023-07-20T11:34:49;94102.09;;;34.71;28.03
6528;BME280;64597;42.664;23.256;2023-07-20T11:37:15;94120.06;;;34.87;27.56
6528;BME280;64597;42.664;23.256;2023-07-20T11:39:41;94101.97;;;34.96;27.75
6528;BME280;64597;42.664;23.256;2023-07-20T11:42:06;94095.63;;;35.17;27.03
6528;BME280;64597;42.664;23.256;2023-07-20T11:44:32;94099.88;;;35.25;27.25
6528;BME280;64597;42.664;23.256;2023-07-20T11:47:07;94102.53;;;35.39;27.19
6528;BME280;64597;42.664;23.256;2023-07-20T11:52:04;94095.69;;;35.68;27.53
6528;BME280;64597;42.664;23.256;2023-07-20T11:54:30;94083.09;;;35.74;26.96
6528;BME280;64597;42.664;23.256;2023-07-20T11:57:00;94086.47;;;35.96;26.04
6528;BME280;64597;42.664;23.256;2023-07-20T11:59:26;94077.25;;;36.13;26.12
6528;BME280;64597;42.664;23.256;2023-07-20T12:01:52;94069.84;;;36.10;26.22
6528;BME280;64597;42.664;23.256;2023-07-20T12:04:18;94076.72;;;36.28;23.33
6528;BME280;64597;42.664;23.256;2023-07-20T12:06:45;94074.03;;;36.21;23.75
6528;BME280;64597;42.664;23.256;2023-07-20T12:09:14;94075.88;;;36.31;23.95
6528;BME280;64597;42.664;23.256;2023-07-20T12:11:44;94063.91;;;36.52;23.85
6528;BME280;64597;42.664;23.256;2023-07-20T12:14:11;94059.94;;;36.57;23.77
6528;BME280;64597;42.664;23.256;2023-07-20T12:16:37;94043.53;;;36.50;23.14
6528;BME280;64597;42.664;23.256;2023-07-20T12:19:11;94062.19;;;36.65;22.25
6528;BME280;64597;42.664;23.256;2023-07-20T12:21:40;94061.13;;;36.56;21.58
6528;BME280;64597;42.664;23.256;2023-07-20T12:24:08;94053.38;;;36.47;21.34
6528;BME280;64597;42.664;23.256;2023-07-20T12:26:37;94047.97;;;36.36;21.20
6528;BME280;64597;42.664;23.256;2023-07-20T12:29:04;94059.88;;;36.26;21.83
6528;BME280;64597;42.664;23.256;2023-07-20T12:31:31;94053.09;;;36.34;22.60
6528;BME280;64597;42.664;23.256;2023-07-20T12:33:58;94056.81;;;36.55;22.28
6528;BME280;64597;42.664;23.256;2023-07-20T12:36:25;94055.22;;;36.57;22.21
6528;BME280;64597;42.664;23.256;2023-07-20T12:38:54;94048.22;;;36.53;22.14
6528;BME280;64597;42.664;23.256;2023-07-20T12:41:20;94046.56;;;36.59;22.41
6528;BME280;64597;42.664;23.256;2023-07-20T12:43:47;94046.00;;;36.71;21.45
6528;BME280;64597;42.664;23.256;2023-07-20T12:46:14;94033.41;;;36.73;21.24
6528;BME280;64597;42.664;23.256;2023-07-20T12:48:42;94054.03;;;36.88;20.97
6528;BME280;64597;42.664;23.256;2023-07-20T12:51:09;94032.19;;;36.78;21.10
6528;BME280;64597;42.664;23.256;2023-07-20T12:53:37;94025.91;;;36.77;20.29
6528;BME280;64597;42.664;23.256;2023-07-20T12:56:03;94018.72;;;36.57;20.31
6528;BME280;64597;42.664;23.256;2023-07-20T12:58:30;94032.09;;;36.55;20.24
6528;BME280;64597;42.664;23.256;2023-07-20T13:00:57;94028.69;;;36.44;20.67
6528;BME280;64597;42.664;23.256;2023-07-20T13:03:25;94021.00;;;36.28;21.38
6528;BME280;64597;42.664;23.256;2023-07-20T13:05:52;94028.69;;;36.44;22.29
6528;BME280;64597;42.664;23.256;2023-07-20T13:08:19;94027.16;;;36.39;22.24
6528;BME280;64597;42.664;23.256;2023-07-20T13:10:45;94026.00;;;36.36;22.03
6528;BME280;64597;42.664;23.256;2023-07-20T13:13:11;94030.31;;;36.37;22.83
6528;BME280;64597;42.664;23.256;2023-07-20T13:15:42;94019.28;;;36.45;23.19
6528;BME280;64597;42.664;23.256;2023-07-20T13:18:09;93949.63;;;35.91;22.92
6528;BME280;64597;42.664;23.256;2023-07-20T13:20:36;94037.22;;;36.53;23.63
6528;BME280;64597;42.664;23.256;2023-07-20T13:23:05;94018.84;;;36.46;23.83
6528;BME280;64597;42.664;23.256;2023-07-20T13:25:36;94022.38;;;36.47;23.57